createdAt,value
2023-02-25T00:02:46.720Z,14.35
2023-02-25T00:07:49.418Z,13.02
2023-02-25T00:12:52.143Z,14.90
2023-02-25T00:17:55.429Z,14.25
2023-02-25T00:22:57.985Z,14.90
2023-02-25T00:28:00.582Z,14.00
2023-02-25T00:33:03.286Z,13.63
2023-02-25T00:38:15.808Z,14.40
2023-02-25T00:43:21.292Z,13.02
2023-02-25T00:48:23.966Z,14.02
2023-02-25T00:53:27.838Z,13.90
2023-02-25T00:58:30.433Z,13.57
2023-02-25T01:03:33.360Z,13.43
2023-02-25T01:08:36.656Z,14.15
2023-02-25T01:13:39.377Z,12.80
2023-02-25T01:18:43.209Z,13.07
2023-02-25T01:23:48.508Z,13.35
2023-02-25T01:28:51.196Z,13.30
2023-02-25T01:33:53.819Z,13.00
2023-02-25T01:38:56.911Z,12.93
2023-02-25T01:44:58.011Z,12.63
2023-02-25T01:50:00.698Z,12.68
2023-02-25T01:55:06.129Z,13.15
2023-02-25T02:00:18.693Z,12.77
2023-02-25T02:05:25.618Z,12.90
2023-02-25T02:10:28.323Z,12.38
2023-02-25T02:15:35.760Z,12.60
2023-02-25T02:20:38.435Z,11.70
2023-02-25T02:26:23.083Z,12.00
2023-02-25T02:31:50.903Z,12.88
2023-02-25T02:37:02.535Z,13.55
2023-02-25T02:42:31.518Z,12.07
2023-02-25T02:47:41.215Z,12.55
2023-02-25T02:52:50.000Z,11.63
2023-02-25T02:58:01.814Z,11.75
2023-02-25T03:03:13.570Z,12.45
2023-02-25T03:08:22.813Z,12.43
2023-02-25T03:13:25.602Z,12.10
2023-02-25T03:18:39.128Z,12.23
2023-02-25T03:23:46.538Z,11.75
2023-02-25T03:28:49.250Z,11.60
2023-02-25T03:33:55.002Z,12.18
2023-02-25T03:39:06.897Z,12.02
2023-02-25T03:44:15.052Z,11.82
2023-02-25T03:49:26.891Z,11.85
2023-02-25T03:54:30.010Z,11.60
2023-02-25T03:59:32.851Z,11.98
2023-02-25T04:04:35.546Z,11.05
2023-02-25T04:09:39.897Z,11.23
2023-02-25T04:14:43.304Z,11.65
2023-02-25T04:19:45.985Z,10.98
2023-02-25T04:24:49.097Z,10.95
2023-02-25T04:29:51.819Z,11.13
2023-02-25T04:34:54.426Z,11.68
2023-02-25T04:39:57.388Z,11.10
2023-02-25T04:45:00.949Z,11.10
2023-02-25T04:50:05.150Z,12.18
2023-02-25T04:55:09.985Z,11.55
2023-02-25T05:00:17.135Z,10.82
2023-02-25T05:05:19.981Z,11.05
2023-02-25T05:10:22.700Z,11.27
2023-02-25T05:15:25.597Z,10.65
2023-02-25T05:20:29.314Z,11.13
2023-02-25T05:25:33.863Z,11.05
2023-02-25T05:30:38.230Z,11.90
2023-02-25T05:35:41.061Z,11.70
2023-02-25T05:40:43.705Z,10.93
2023-02-25T05:45:54.270Z,10.43
2023-02-25T05:51:06.594Z,10.20
2023-02-25T05:56:13.107Z,10.40
2023-02-25T06:01:19.117Z,10.60
2023-02-25T06:06:25.338Z,10.60
2023-02-25T06:11:30.858Z,10.35
2023-02-25T06:16:33.627Z,9.65
2023-02-25T06:21:36.414Z,10.05
2023-02-25T06:26:42.017Z,9.77
2023-02-25T06:31:44.808Z,9.88
2023-02-25T06:36:47.445Z,9.38
2023-02-25T06:41:50.001Z,8.57
2023-02-25T06:46:55.966Z,9.15
2023-02-25T06:51:58.802Z,8.60
2023-02-25T06:57:01.498Z,9.60
2023-02-25T07:02:04.405Z,9.07
2023-02-25T07:07:07.252Z,9.10
2023-02-25T07:12:09.824Z,8.32
2023-02-25T07:17:12.504Z,8.75
2023-02-25T07:22:17.107Z,8.80
2023-02-25T07:27:19.787Z,8.63
2023-02-25T07:32:25.058Z,8.82
2023-02-25T07:37:27.822Z,8.23
2023-02-25T07:42:31.070Z,7.70
2023-02-25T07:47:35.650Z,8.18
2023-02-25T07:52:38.649Z,8.07
2023-02-25T07:57:41.397Z,7.72
2023-02-25T08:02:44.837Z,7.18
2023-02-25T08:07:47.984Z,7.53
2023-02-25T08:12:50.635Z,7.30
2023-02-25T08:17:55.991Z,7.43
2023-02-25T08:22:59.161Z,7.00
2023-02-25T08:28:01.915Z,6.65
2023-02-25T08:33:04.706Z,6.85
2023-02-25T08:38:07.569Z,6.72
2023-02-25T08:43:10.979Z,7.13
2023-02-25T08:48:13.776Z,5.70
2023-02-25T08:53:16.572Z,6.97
2023-02-25T08:58:19.141Z,5.80
2023-02-25T09:03:21.998Z,6.63
2023-02-25T09:08:24.722Z,5.75
2023-02-25T09:13:27.431Z,5.05
2023-02-25T09:18:32.191Z,5.25
2023-02-25T09:23:34.871Z,5.78
2023-02-25T09:28:37.496Z,4.60
2023-02-25T09:33:42.011Z,4.22
2023-02-25T09:38:46.412Z,4.57
2023-02-25T09:43:53.897Z,4.60
2023-02-25T09:49:21.612Z,4.30
2023-02-25T09:54:30.883Z,4.10
2023-02-25T09:59:33.956Z,3.80
2023-02-25T10:04:46.867Z,3.67
2023-02-25T10:10:06.659Z,4.80
2023-02-25T10:15:19.364Z,3.78
2023-02-25T10:20:43.868Z,4.38
2023-02-25T10:26:04.635Z,3.83
2023-02-25T10:31:13.055Z,3.78
2023-02-25T10:36:39.749Z,4.18
2023-02-25T10:41:42.465Z,3.90
2023-02-25T10:46:44.986Z,4.03
2023-02-25T10:52:10.407Z,3.33
2023-02-25T10:57:22.851Z,3.72
2023-02-25T11:02:30.426Z,3.72
2023-02-25T11:07:36.406Z,3.50
2023-02-25T11:12:45.953Z,3.63
2023-02-25T11:17:48.724Z,3.20
2023-02-25T11:22:56.819Z,2.60
2023-02-25T11:27:59.978Z,3.22
2023-02-25T11:33:09.815Z,3.00
2023-02-25T11:38:36.461Z,3.10
2023-02-25T11:43:42.494Z,3.00
2023-02-25T11:49:24.021Z,3.15
2023-02-25T11:54:41.827Z,3.03
2023-02-25T11:59:52.907Z,3.17
2023-02-25T12:05:13.890Z,3.77
2023-02-25T12:10:43.162Z,3.22
2023-02-25T12:16:16.439Z,2.95
2023-02-25T12:21:28.158Z,3.10
2023-02-25T12:27:01.943Z,3.60
2023-02-25T12:32:32.597Z,3.60
2023-02-25T12:37:43.927Z,3.60
2023-02-25T12:43:03.505Z,4.03
2023-02-25T12:48:44.328Z,3.80
2023-02-25T12:54:19.027Z,4.13
2023-02-25T12:59:41.992Z,4.57
2023-02-25T13:05:13.388Z,4.78
2023-02-25T13:10:29.216Z,4.28
2023-02-25T13:15:58.306Z,4.68
2023-02-25T13:21:42.564Z,4.50
2023-02-25T13:27:19.977Z,4.80
2023-02-25T13:32:46.240Z,4.57
2023-02-25T13:37:57.976Z,5.68
2023-02-25T13:43:25.770Z,5.55
2023-02-25T13:48:57.356Z,6.53
2023-02-25T13:54:25.387Z,3.55
2023-02-25T14:00:09.290Z,6.28
2023-02-25T14:05:54.647Z,6.05
2023-02-25T14:11:13.564Z,6.13
2023-02-25T14:16:16.078Z,5.88
2023-02-25T14:21:36.550Z,6.22
2023-02-25T14:26:53.747Z,6.70
2023-02-25T14:32:15.245Z,7.55
2023-02-25T14:37:36.147Z,6.57
2023-02-25T14:43:06.802Z,7.70
2023-02-25T14:48:41.714Z,7.40
2023-02-25T14:53:59.477Z,7.60
2023-02-25T14:59:35.787Z,8.02
2023-02-25T15:05:16.602Z,8.63
2023-02-25T15:10:37.481Z,9.30
2023-02-25T15:16:21.871Z,11.35
2023-02-25T15:21:44.167Z,10.52
2023-02-25T15:26:48.773Z,11.82
2023-02-25T15:32:30.167Z,10.75
2023-02-25T15:37:38.967Z,10.73
2023-02-25T15:42:48.258Z,10.55
2023-02-25T15:47:51.102Z,11.02
2023-02-25T15:53:00.330Z,10.73
2023-02-25T15:58:24.676Z,12.10
2023-02-25T16:03:36.261Z,12.32
2023-02-25T16:08:52.063Z,12.68
2023-02-25T16:13:55.308Z,14.73
2023-02-25T16:19:00.433Z,13.80
2023-02-25T16:24:08.234Z,15.10
2023-02-25T16:29:43.207Z,14.13
2023-02-25T16:34:54.686Z,16.25
2023-02-25T16:39:58.604Z,14.95
2023-02-25T16:45:04.729Z,15.45
2023-02-25T16:50:22.315Z,15.90
2023-02-25T16:55:32.271Z,15.90
2023-02-25T17:00:36.635Z,15.95
2023-02-25T17:05:39.488Z,16.08
2023-02-25T17:10:48.622Z,16.67
2023-02-25T17:15:52.844Z,16.38
2023-02-25T17:21:02.725Z,17.73
2023-02-25T17:26:06.109Z,16.13
2023-02-25T17:31:15.675Z,15.70
2023-02-25T17:36:23.932Z,15.88
2023-02-25T17:41:27.645Z,15.48
2023-02-25T17:46:38.224Z,16.48
2023-02-25T17:51:41.088Z,15.98
2023-02-25T17:56:43.756Z,15.02
2023-02-25T18:01:49.317Z,15.43
2023-02-25T18:06:53.649Z,17.63
2023-02-25T18:11:58.127Z,17.00
2023-02-25T18:17:01.474Z,16.40
2023-02-25T18:22:06.212Z,17.10
2023-02-25T18:27:37.933Z,17.23
2023-02-25T18:32:40.792Z,18.33
2023-02-25T18:37:46.260Z,19.98
2023-02-25T18:42:48.969Z,20.50
2023-02-25T18:47:52.853Z,23.40
2023-02-25T18:52:56.050Z,23.95
2023-02-25T18:57:59.042Z,24.15
2023-02-25T19:03:04.203Z,23.38
2023-02-25T19:08:14.979Z,24.13
2023-02-25T19:13:40.601Z,23.00
2023-02-25T19:18:43.578Z,25.52
2023-02-25T19:23:46.961Z,23.88
2023-02-25T19:28:49.597Z,22.17
2023-02-25T19:33:52.258Z,22.98
2023-02-25T19:38:54.931Z,22.13
2023-02-25T19:43:57.616Z,21.52
2023-02-25T19:49:00.266Z,20.70
2023-02-25T19:54:03.613Z,19.33
2023-02-25T19:59:08.451Z,21.60
2023-02-25T20:04:11.743Z,21.70
2023-02-25T20:09:14.676Z,20.98
2023-02-25T20:14:18.187Z,22.50
2023-02-25T20:19:22.962Z,24.10
2023-02-25T20:24:26.224Z,23.88
2023-02-25T20:29:29.567Z,22.67
2023-02-25T20:34:32.727Z,23.08
2023-02-25T20:39:38.356Z,21.55
2023-02-25T20:44:41.695Z,21.20
2023-02-25T20:49:44.836Z,20.75
2023-02-25T20:54:49.936Z,20.33
2023-02-25T20:59:54.287Z,18.23
2023-02-25T21:04:56.970Z,19.73
2023-02-25T21:09:59.661Z,18.65
2023-02-25T21:15:06.586Z,17.65
2023-02-25T21:20:11.571Z,17.75
2023-02-25T21:25:15.280Z,17.50
2023-02-25T21:30:18.646Z,17.90
2023-02-25T21:35:25.361Z,16.38
2023-02-25T21:40:28.743Z,18.20
2023-02-25T21:45:31.944Z,16.45
2023-02-25T21:50:34.619Z,15.88
2023-02-25T21:55:37.417Z,16.35
2023-02-25T22:00:40.788Z,15.77
2023-02-25T22:05:47.417Z,14.70
2023-02-25T22:10:50.730Z,15.18
2023-02-25T22:15:53.957Z,14.55
2023-02-25T22:21:09.997Z,14.93
2023-02-25T22:26:15.979Z,15.57
2023-02-25T22:31:19.222Z,16.08
2023-02-25T22:36:23.461Z,15.70
2023-02-25T22:41:28.762Z,15.02
2023-02-25T22:46:36.402Z,15.38
2023-02-25T22:51:42.939Z,16.02
2023-02-25T22:56:47.152Z,16.73
2023-02-25T23:01:50.388Z,16.67
2023-02-25T23:06:55.824Z,18.90
2023-02-25T23:11:59.996Z,20.88
2023-02-25T23:17:02.843Z,21.65
2023-02-25T23:22:06.063Z,22.67
2023-02-25T23:27:09.130Z,24.75
2023-02-25T23:32:12.213Z,25.30
2023-02-25T23:37:16.127Z,25.52
2023-02-25T23:42:19.098Z,27.10
2023-02-25T23:47:22.110Z,27.42
2023-02-25T23:52:24.893Z,24.85
2023-02-25T23:57:28.115Z,24.52
